createdAt,value
2023-10-09T00:03:57.322Z,-18790.00
2023-10-09T00:08:58.916Z,-18791.00
2023-10-09T00:14:00.995Z,-18782.00
2023-10-09T00:19:14.755Z,-18782.00
2023-10-09T00:24:25.453Z,-18784.00
2023-10-09T00:29:33.390Z,-18786.00
2023-10-09T00:34:39.986Z,-18791.00
2023-10-09T00:39:44.202Z,-18790.00
2023-10-09T00:44:48.642Z,-18793.00
2023-10-09T00:50:00.999Z,-18796.00
2023-10-09T00:55:56.090Z,-18800.00
2023-10-09T01:00:59.672Z,-18807.00
2023-10-09T01:06:36.411Z,-18811.00
2023-10-09T01:11:48.658Z,-18808.00
2023-10-09T01:16:49.614Z,-18812.00
2023-10-09T01:21:51.488Z,-18809.00
2023-10-09T01:26:54.578Z,-18810.00
2023-10-09T01:31:57.098Z,-18809.00
2023-10-09T01:37:00.498Z,-18804.00
2023-10-09T01:42:01.898Z,-18804.00
2023-10-09T01:47:07.563Z,-18807.00
2023-10-09T01:52:09.659Z,-18804.00
2023-10-09T01:57:13.300Z,-18801.00
2023-10-09T02:02:25.889Z,-18799.00
2023-10-09T02:07:40.442Z,-18799.00
2023-10-09T02:12:43.821Z,-18799.00
2023-10-09T02:17:52.482Z,-18800.00
2023-10-09T02:22:53.366Z,-18799.00
2023-10-09T02:27:54.242Z,-18800.00
2023-10-09T02:33:06.753Z,-18805.00
2023-10-09T02:38:07.656Z,-18805.00
2023-10-09T02:43:18.164Z,-18800.00
2023-10-09T02:48:26.796Z,-18798.00
2023-10-09T02:53:29.753Z,-18799.00
2023-10-09T02:58:32.614Z,-18803.00
2023-10-09T03:03:36.000Z,-18800.00
2023-10-09T03:08:38.334Z,-18801.00
2023-10-09T03:13:48.365Z,-18799.00
2023-10-09T03:18:51.369Z,-18798.00
2023-10-09T03:23:52.169Z,-18796.00
2023-10-09T03:28:52.984Z,-18793.00
2023-10-09T03:33:53.988Z,-18793.00
2023-10-09T03:38:56.126Z,-18792.00
2023-10-09T03:43:56.896Z,-18796.00
2023-10-09T03:48:58.568Z,-18796.00
2023-10-09T03:53:59.618Z,-18798.00
2023-10-09T03:59:01.890Z,-18800.00
2023-10-09T04:04:04.002Z,-18801.00
2023-10-09T04:10:59.102Z,-18804.00
2023-10-09T04:16:09.466Z,-18807.00
2023-10-09T04:21:19.388Z,-18806.00
2023-10-09T04:26:21.214Z,-18801.00
2023-10-09T04:31:32.220Z,-18802.00
2023-10-09T04:36:46.533Z,-18796.00
2023-10-09T04:41:56.194Z,-18794.00
2023-10-09T04:53:44.875Z,-18789.00
2023-10-09T04:58:48.149Z,-18788.00
2023-10-09T05:03:57.153Z,-18786.00
2023-10-09T05:09:08.191Z,-18785.00
2023-10-09T05:14:14.712Z,-18785.00
2023-10-09T05:19:34.025Z,-18785.00
2023-10-09T05:24:47.683Z,-18786.00
2023-10-09T05:29:59.520Z,-18787.00
2023-10-09T05:35:09.871Z,-18787.00
2023-10-09T05:40:46.650Z,-18786.00
2023-10-09T05:46:07.630Z,-18790.00
2023-10-09T05:51:12.925Z,-18790.00
2023-10-09T05:59:45.712Z,-18789.00
2023-10-09T06:04:56.009Z,-18787.00
2023-10-09T06:09:58.960Z,-18789.00
2023-10-09T06:15:51.790Z,-18788.00
2023-10-09T06:21:39.808Z,-18792.00
2023-10-09T06:27:08.398Z,-18790.00
2023-10-09T06:33:10.708Z,-18789.00
2023-10-09T06:38:24.228Z,-18792.00
2023-10-09T06:43:28.203Z,-18793.00
2023-10-09T06:49:02.183Z,-18795.00
2023-10-09T06:54:09.872Z,-18794.00
2023-10-09T06:59:22.404Z,-18792.00
2023-10-09T07:05:23.841Z,-18794.00
2023-10-09T07:10:33.156Z,-18798.00
2023-10-09T07:16:24.179Z,-18796.00
2023-10-09T07:21:31.855Z,-18798.00
2023-10-09T07:26:47.513Z,-18799.00
2023-10-09T07:31:58.749Z,-18802.00
2023-10-09T07:37:04.182Z,-18804.00
2023-10-09T07:42:27.072Z,-18807.00
2023-10-09T07:47:46.267Z,-18807.00
2023-10-09T07:52:50.050Z,-18810.00
2023-10-09T07:57:52.434Z,-18811.00
2023-10-09T08:03:01.177Z,-18813.00
2023-10-09T08:08:39.839Z,-18812.00
2023-10-09T08:13:49.731Z,-18814.00
2023-10-09T08:18:53.773Z,-18816.00
2023-10-09T08:23:54.988Z,-18817.00
2023-10-09T08:29:15.333Z,-18820.00
2023-10-09T08:39:33.936Z,-18828.00
2023-10-09T08:44:35.166Z,-18832.00
2023-10-09T08:49:37.563Z,-18839.00
2023-10-09T08:54:38.709Z,-18842.00
2023-10-09T08:59:47.771Z,-18840.00
2023-10-09T09:04:51.185Z,-18838.00
2023-10-09T09:10:04.136Z,-18832.00
2023-10-09T09:15:13.400Z,-18827.00
2023-10-09T09:20:30.672Z,-18823.00
2023-10-09T09:28:12.836Z,-18821.00
2023-10-09T09:33:40.064Z,-18820.00
2023-10-09T09:38:50.866Z,-18823.00
2023-10-09T09:44:01.471Z,-18823.00
2023-10-09T09:49:19.796Z,-18827.00
2023-10-09T09:54:24.275Z,-18832.00
2023-10-09T09:59:29.924Z,-18832.00
2023-10-09T10:04:35.728Z,-18832.00
2023-10-09T10:09:42.053Z,-18837.00
2023-10-09T10:14:59.786Z,-18841.00
2023-10-09T10:23:35.378Z,-18846.00
2023-10-09T10:28:39.229Z,-18860.00
2023-10-09T10:35:45.249Z,-18861.00
2023-10-09T10:40:57.456Z,-18864.00
2023-10-09T10:46:14.183Z,-18879.00
2023-10-09T10:51:15.364Z,-18890.00
2023-10-09T10:56:19.207Z,-18894.00
2023-10-09T11:01:25.064Z,-18901.00
2023-10-09T11:06:36.808Z,-18912.00
2023-10-09T11:11:47.241Z,-18927.00
2023-10-09T11:16:49.298Z,-18945.00
2023-10-09T11:22:14.987Z,-18949.00
2023-10-09T11:27:20.866Z,-18948.00
2023-10-09T11:32:25.768Z,-18949.00
2023-10-09T11:37:38.645Z,-18958.00
2023-10-09T11:42:49.379Z,-18967.00
2023-10-09T11:47:57.266Z,-18962.00
2023-10-09T11:53:17.689Z,-18967.00
2023-10-09T11:58:22.964Z,-18968.00
2023-10-09T12:03:30.407Z,-18973.00
2023-10-09T12:08:32.707Z,-18974.00
2023-10-09T12:13:33.608Z,-18977.00
2023-10-09T12:18:35.249Z,-18981.00
2023-10-09T12:23:36.170Z,-18984.00
2023-10-09T12:28:37.048Z,-18991.00
2023-10-09T12:33:40.165Z,-19004.00
2023-10-09T12:38:46.580Z,-19010.00
2023-10-09T12:43:47.788Z,-19014.00
2023-10-09T12:48:49.224Z,-19016.00
2023-10-09T12:53:57.146Z,-19014.00
2023-10-09T12:58:58.105Z,-19017.00
2023-10-09T13:04:02.325Z,-19024.00
2023-10-09T13:09:07.026Z,-19031.00
2023-10-09T13:14:23.229Z,-19040.00
2023-10-09T13:19:24.662Z,-19041.00
2023-10-09T13:24:30.167Z,-19048.00
2023-10-09T13:29:34.244Z,-19049.00
2023-10-09T13:34:35.045Z,-19045.00
2023-10-09T13:39:40.246Z,-19037.00
2023-10-09T13:44:42.821Z,-19036.00
2023-10-09T13:49:44.641Z,-19030.00
2023-10-09T13:54:49.649Z,-19033.00
2023-10-09T13:59:50.930Z,-19036.00
2023-10-09T14:04:52.703Z,-19038.00
2023-10-09T14:09:56.901Z,-19042.00
2023-10-09T14:14:57.815Z,-19037.00
2023-10-09T14:20:26.330Z,-19036.00
2023-10-09T14:25:30.392Z,-19032.00
2023-10-09T14:30:32.478Z,-19024.00
2023-10-09T14:35:33.300Z,-19017.00
2023-10-09T14:40:34.231Z,-19012.00
2023-10-09T14:45:38.072Z,-19005.00
2023-10-09T14:50:47.140Z,-19003.00
2023-10-09T14:55:54.977Z,-18997.00
2023-10-09T15:00:56.015Z,-18990.00
2023-10-09T15:05:59.829Z,-18988.00
2023-10-09T15:11:01.205Z,-18982.00
2023-10-09T15:16:04.225Z,-18976.00
2023-10-09T15:21:06.649Z,-18970.00
2023-10-09T15:26:08.635Z,-18966.00
2023-10-09T15:31:14.596Z,-18959.00
2023-10-09T15:36:21.039Z,-18955.00
2023-10-09T15:41:22.107Z,-18955.00
2023-10-09T15:46:23.443Z,-18948.00
2023-10-09T15:51:25.939Z,-18944.00
2023-10-09T15:56:27.260Z,-18942.00
2023-10-09T16:01:28.140Z,-18939.00
2023-10-09T16:06:31.547Z,-18936.00
2023-10-09T16:11:34.230Z,-18933.00
2023-10-09T16:16:36.692Z,-18929.00
2023-10-09T16:21:39.156Z,-18923.00
2023-10-09T16:26:39.998Z,-18921.00
2023-10-09T16:31:41.999Z,-18915.00
2023-10-09T16:36:43.226Z,-18911.00
2023-10-09T16:41:47.115Z,-18908.00
2023-10-09T16:46:49.372Z,-18907.00
2023-10-09T16:51:50.256Z,-18904.00
2023-10-09T16:56:57.364Z,-18901.00
2023-10-09T17:01:58.251Z,-18901.00
2023-10-09T17:07:01.720Z,-18899.00
2023-10-09T17:12:03.797Z,-18894.00
2023-10-09T17:17:08.772Z,-18894.00
2023-10-09T17:22:12.708Z,-18894.00
2023-10-09T17:27:18.050Z,-18894.00
2023-10-09T17:32:18.947Z,-18892.00
2023-10-09T17:37:22.827Z,-18890.00
2023-10-09T17:42:24.794Z,-18889.00
2023-10-09T17:47:26.006Z,-18888.00
2023-10-09T17:52:27.242Z,-18887.00
2023-10-09T17:57:28.244Z,-18886.00
2023-10-09T18:02:29.411Z,-18884.00
2023-10-09T18:07:30.325Z,-18883.00
2023-10-09T18:12:31.638Z,-18882.00
2023-10-09T18:17:35.658Z,-18882.00
2023-10-09T18:22:36.818Z,-18879.00
2023-10-09T18:27:38.630Z,-18878.00
2023-10-09T18:32:45.472Z,-18877.00
2023-10-09T18:37:46.396Z,-18876.00
2023-10-09T18:42:48.376Z,-18876.00
2023-10-09T18:47:49.276Z,-18874.00
2023-10-09T18:52:52.407Z,-18872.00
2023-10-09T18:57:53.935Z,-18873.00
2023-10-09T19:02:54.759Z,-18871.00
2023-10-09T19:07:55.653Z,-18872.00
2023-10-09T19:12:56.732Z,-18871.00
2023-10-09T19:17:58.036Z,-18870.00
2023-10-09T19:23:04.315Z,-18868.00
2023-10-09T19:28:05.305Z,-18866.00
2023-10-09T19:33:06.198Z,-18864.00
2023-10-09T19:38:08.504Z,-18860.00
2023-10-09T19:43:09.589Z,-18857.00
2023-10-09T19:48:12.051Z,-18856.00
2023-10-09T19:53:14.719Z,-18851.00
2023-10-09T19:58:15.572Z,-18853.00
2023-10-09T20:03:16.589Z,-18849.00
2023-10-09T20:08:17.685Z,-18847.00
2023-10-09T20:13:18.723Z,-18841.00
2023-10-09T20:18:19.869Z,-18838.00
2023-10-09T20:23:21.324Z,-18834.00
2023-10-09T20:28:25.589Z,-18835.00
2023-10-09T20:33:26.740Z,-18833.00
2023-10-09T20:38:27.603Z,-18833.00
2023-10-09T20:43:28.619Z,-18831.00
2023-10-09T20:48:29.449Z,-18830.00
2023-10-09T20:53:31.135Z,-18830.00
2023-10-09T20:58:32.061Z,-18832.00
2023-10-09T21:03:32.961Z,-18829.00
2023-10-09T21:08:33.981Z,-18825.00
2023-10-09T21:13:39.157Z,-18823.00
2023-10-09T21:18:44.270Z,-18822.00
2023-10-09T21:23:46.227Z,-18826.00
2023-10-09T21:28:49.036Z,-18822.00
2023-10-09T21:33:50.029Z,-18822.00
2023-10-09T21:38:50.916Z,-18820.00
2023-10-09T21:43:53.629Z,-18818.00
2023-10-09T21:48:54.549Z,-18817.00
2023-10-09T21:53:55.434Z,-18811.00
2023-10-09T21:58:56.272Z,-18811.00
2023-10-09T22:03:57.597Z,-18801.00
2023-10-09T22:08:58.422Z,-18794.00
2023-10-09T22:13:59.571Z,-18790.00
2023-10-09T22:19:13.422Z,-18788.00
2023-10-09T22:24:18.685Z,-18786.00
2023-10-09T22:29:19.578Z,-18785.00
2023-10-09T22:34:20.460Z,-18784.00
2023-10-09T22:39:21.442Z,-18779.00
2023-10-09T22:44:24.698Z,-18772.00
2023-10-09T22:49:32.604Z,-18773.00
2023-10-09T22:54:36.686Z,-18771.00
2023-10-09T22:59:44.437Z,-18771.00
2023-10-09T23:04:49.579Z,-18772.00
2023-10-09T23:09:50.744Z,-18773.00
2023-10-09T23:14:55.562Z,-18776.00
2023-10-09T23:19:56.552Z,-18774.00
2023-10-09T23:25:28.145Z,-18775.00
2023-10-09T23:30:28.938Z,-18775.00
2023-10-09T23:35:44.417Z,-18779.00
2023-10-09T23:40:45.486Z,-18778.00
2023-10-09T23:45:47.653Z,-18779.00
2023-10-09T23:50:48.565Z,-18775.00
2023-10-09T23:55:52.696Z,-18773.00
